sensor_id;sensor_type;location;lat;lon;timestamp;temperature;humidity
55992;DHT22;66896;50.924;4.572;2023-03-01T00:00:45;-1.30;92.60
55992;DHT22;66896;50.924;4.572;2023-03-01T00:03:12;-1.30;92.60
55992;DHT22;66896;50.924;4.572;2023-03-01T00:05:47;-1.40;92.70
55992;DHT22;66896;50.924;4.572;2023-03-01T00:08:12;-1.40;92.70
55992;DHT22;66896;50.924;4.572;2023-03-01T00:10:38;-1.40;92.80
55992;DHT22;66896;50.924;4.572;2023-03-01T00:13:04;-1.40;92.90
55992;DHT22;66896;50.924;4.572;2023-03-01T00:15:31;-1.30;92.70
55992;DHT22;66896;50.924;4.572;2023-03-01T00:17:56;-1.30;92.80
55992;DHT22;66896;50.924;4.572;2023-03-01T00:20:22;-1.20;92.70
55992;DHT22;66896;50.924;4.572;2023-03-01T00:22:48;-1.30;93.10
55992;DHT22;66896;50.924;4.572;2023-03-01T00:25:13;-1.40;93.20
55992;DHT22;66896;50.924;4.572;2023-03-01T00:27:39;-1.50;93.20
55992;DHT22;66896;50.924;4.572;2023-03-01T00:30:05;-1.60;93.60
55992;DHT22;66896;50.924;4.572;2023-03-01T00:32:30;-1.60;93.10
55992;DHT22;66896;50.924;4.572;2023-03-01T00:34:56;-1.80;93.40
55992;DHT22;66896;50.924;4.572;2023-03-01T00:37:22;-1.90;93.70
55992;DHT22;66896;50.924;4.572;2023-03-01T00:39:48;-1.80;93.60
55992;DHT22;66896;50.924;4.572;2023-03-01T00:42:13;-1.80;93.70
55992;DHT22;66896;50.924;4.572;2023-03-01T00:44:39;-1.80;93.50
55992;DHT22;66896;50.924;4.572;2023-03-01T00:47:05;-1.90;93.80
55992;DHT22;66896;50.924;4.572;2023-03-01T00:49:30;-2.00;93.70
55992;DHT22;66896;50.924;4.572;2023-03-01T00:51:56;-2.00;93.80
55992;DHT22;66896;50.924;4.572;2023-03-01T00:54:22;-1.90;94.00
55992;DHT22;66896;50.924;4.572;2023-03-01T00:56:47;-1.90;94.00
55992;DHT22;66896;50.924;4.572;2023-03-01T00:59:13;-1.80;93.80
55992;DHT22;66896;50.924;4.572;2023-03-01T01:01:39;-1.90;93.90
55992;DHT22;66896;50.924;4.572;2023-03-01T01:04:07;-2.00;94.20
55992;DHT22;66896;50.924;4.572;2023-03-01T01:06:34;-2.00;94.30
55992;DHT22;66896;50.924;4.572;2023-03-01T01:09:00;-2.00;94.30
55992;DHT22;66896;50.924;4.572;2023-03-01T01:11:27;-2.00;94.10
55992;DHT22;66896;50.924;4.572;2023-03-01T01:13:53;-2.00;94.60
55992;DHT22;66896;50.924;4.572;2023-03-01T01:16:19;-2.00;94.60
55992;DHT22;66896;50.924;4.572;2023-03-01T01:18:45;-2.10;94.60
55992;DHT22;66896;50.924;4.572;2023-03-01T01:21:12;-2.10;94.70
55992;DHT22;66896;50.924;4.572;2023-03-01T01:23:38;-2.10;94.70
55992;DHT22;66896;50.924;4.572;2023-03-01T01:26:05;-2.00;94.80
55992;DHT22;66896;50.924;4.572;2023-03-01T01:28:31;-2.10;95.00
55992;DHT22;66896;50.924;4.572;2023-03-01T01:30:57;-2.00;94.90
55992;DHT22;66896;50.924;4.572;2023-03-01T01:33:22;-2.00;94.50
55992;DHT22;66896;50.924;4.572;2023-03-01T01:35:48;-2.10;94.30
55992;DHT22;66896;50.924;4.572;2023-03-01T01:38:13;-2.30;94.50
55992;DHT22;66896;50.924;4.572;2023-03-01T01:40:43;-2.50;94.70
55992;DHT22;66896;50.924;4.572;2023-03-01T01:43:14;-2.50;94.70
55992;DHT22;66896;50.924;4.572;2023-03-01T01:45:41;-2.50;94.90
55992;DHT22;66896;50.924;4.572;2023-03-01T01:48:10;-2.40;95.20
55992;DHT22;66896;50.924;4.572;2023-03-01T01:50:38;-2.40;95.40
55992;DHT22;66896;50.924;4.572;2023-03-01T01:53:26;-2.30;95.50
55992;DHT22;66896;50.924;4.572;2023-03-01T01:55:54;-2.30;95.00
55992;DHT22;66896;50.924;4.572;2023-03-01T01:58:22;-2.40;95.50
55992;DHT22;66896;50.924;4.572;2023-03-01T02:00:49;-2.30;95.60
55992;DHT22;66896;50.924;4.572;2023-03-01T02:03:16;-1.90;95.00
55992;DHT22;66896;50.924;4.572;2023-03-01T02:05:45;-1.90;94.40
55992;DHT22;66896;50.924;4.572;2023-03-01T02:08:13;-2.20;94.70
55992;DHT22;66896;50.924;4.572;2023-03-01T02:10:40;-2.20;95.00
55992;DHT22;66896;50.924;4.572;2023-03-01T02:13:05;-2.20;95.00
55992;DHT22;66896;50.924;4.572;2023-03-01T02:15:32;-2.30;94.90
55992;DHT22;66896;50.924;4.572;2023-03-01T02:17:58;-2.20;94.70
55992;DHT22;66896;50.924;4.572;2023-03-01T02:23:02;-2.70;96.10
55992;DHT22;66896;50.924;4.572;2023-03-01T02:30:49;-3.00;96.80
55992;DHT22;66896;50.924;4.572;2023-03-01T02:33:34;-3.00;97.00
55992;DHT22;66896;50.924;4.572;2023-03-01T02:36:02;-3.00;96.80
55992;DHT22;66896;50.924;4.572;2023-03-01T02:38:28;-3.10;96.90
55992;DHT22;66896;50.924;4.572;2023-03-01T02:40:54;-3.10;97.10
55992;DHT22;66896;50.924;4.572;2023-03-01T02:43:20;-3.10;97.20
55992;DHT22;66896;50.924;4.572;2023-03-01T02:45:50;-3.00;97.00
55992;DHT22;66896;50.924;4.572;2023-03-01T02:48:16;-3.00;96.40
55992;DHT22;66896;50.924;4.572;2023-03-01T02:51:25;-2.90;96.40
55992;DHT22;66896;50.924;4.572;2023-03-01T02:55:56;-2.90;96.20
55992;DHT22;66896;50.924;4.572;2023-03-01T02:58:22;-2.80;96.00
55992;DHT22;66896;50.924;4.572;2023-03-01T03:00:48;-2.80;96.10
55992;DHT22;66896;50.924;4.572;2023-03-01T03:03:15;-2.90;96.30
55992;DHT22;66896;50.924;4.572;2023-03-01T03:05:40;-2.80;96.00
55992;DHT22;66896;50.924;4.572;2023-03-01T03:08:06;-2.80;95.80
55992;DHT22;66896;50.924;4.572;2023-03-01T03:10:34;-2.80;95.70
55992;DHT22;66896;50.924;4.572;2023-03-01T03:13:01;-2.90;95.80
55992;DHT22;66896;50.924;4.572;2023-03-01T03:15:27;-3.00;95.80
55992;DHT22;66896;50.924;4.572;2023-03-01T03:17:53;-3.20;96.00
55992;DHT22;66896;50.924;4.572;2023-03-01T03:20:20;-3.10;96.30
55992;DHT22;66896;50.924;4.572;2023-03-01T03:22:46;-3.20;96.00
55992;DHT22;66896;50.924;4.572;2023-03-01T03:25:12;-3.20;96.00
55992;DHT22;66896;50.924;4.572;2023-03-01T03:27:38;-3.20;96.20
55992;DHT22;66896;50.924;4.572;2023-03-01T03:30:05;-3.20;96.00
55992;DHT22;66896;50.924;4.572;2023-03-01T03:32:37;-3.30;96.00
55992;DHT22;66896;50.924;4.572;2023-03-01T03:35:03;-3.30;95.90
55992;DHT22;66896;50.924;4.572;2023-03-01T03:37:38;-3.30;95.70
55992;DHT22;66896;50.924;4.572;2023-03-01T03:40:22;-3.30;96.10
55992;DHT22;66896;50.924;4.572;2023-03-01T03:42:48;-3.30;96.40
55992;DHT22;66896;50.924;4.572;2023-03-01T03:45:14;-3.30;96.40
55992;DHT22;66896;50.924;4.572;2023-03-01T03:47:40;-3.20;96.40
55992;DHT22;66896;50.924;4.572;2023-03-01T03:50:05;-3.20;96.40
55992;DHT22;66896;50.924;4.572;2023-03-01T03:52:31;-3.10;96.40
55992;DHT22;66896;50.924;4.572;2023-03-01T03:54:56;-3.10;96.20
55992;DHT22;66896;50.924;4.572;2023-03-01T03:57:22;-3.00;96.10
55992;DHT22;66896;50.924;4.572;2023-03-01T03:59:48;-3.10;96.10
55992;DHT22;66896;50.924;4.572;2023-03-01T04:02:13;-3.20;96.40
55992;DHT22;66896;50.924;4.572;2023-03-01T04:04:50;-3.20;96.30
55992;DHT22;66896;50.924;4.572;2023-03-01T04:07:16;-3.20;96.30
55992;DHT22;66896;50.924;4.572;2023-03-01T04:09:42;-2.90;95.90
55992;DHT22;66896;50.924;4.572;2023-03-01T04:12:08;-3.00;96.30
55992;DHT22;66896;50.924;4.572;2023-03-01T04:14:34;-3.10;96.40
55992;DHT22;66896;50.924;4.572;2023-03-01T04:16:59;-3.20;96.40
55992;DHT22;66896;50.924;4.572;2023-03-01T04:19:25;-3.20;96.20
55992;DHT22;66896;50.924;4.572;2023-03-01T04:21:52;-3.30;96.20
55992;DHT22;66896;50.924;4.572;2023-03-01T04:24:18;-3.30;96.40
55992;DHT22;66896;50.924;4.572;2023-03-01T04:26:43;-3.40;96.20
55992;DHT22;66896;50.924;4.572;2023-03-01T04:29:09;-3.50;96.30
55992;DHT22;66896;50.924;4.572;2023-03-01T04:31:35;-3.50;96.30
55992;DHT22;66896;50.924;4.572;2023-03-01T04:34:00;-3.50;96.40
55992;DHT22;66896;50.924;4.572;2023-03-01T04:36:27;-3.40;96.30
55992;DHT22;66896;50.924;4.572;2023-03-01T04:38:53;-3.40;96.30
55992;DHT22;66896;50.924;4.572;2023-03-01T04:41:20;-3.30;96.10
55992;DHT22;66896;50.924;4.572;2023-03-01T04:43:46;-3.40;96.10
55992;DHT22;66896;50.924;4.572;2023-03-01T04:46:14;-3.40;96.00
55992;DHT22;66896;50.924;4.572;2023-03-01T04:48:40;-3.50;96.20
55992;DHT22;66896;50.924;4.572;2023-03-01T04:51:06;-3.40;96.20
55992;DHT22;66896;50.924;4.572;2023-03-01T04:53:32;-3.50;96.50
55992;DHT22;66896;50.924;4.572;2023-03-01T04:55:58;-3.50;96.10
55992;DHT22;66896;50.924;4.572;2023-03-01T04:58:25;-3.40;96.30
55992;DHT22;66896;50.924;4.572;2023-03-01T05:00:50;-3.40;96.20
55992;DHT22;66896;50.924;4.572;2023-03-01T05:03:16;-3.60;96.50
55992;DHT22;66896;50.924;4.572;2023-03-01T05:05:44;-3.30;96.40
55992;DHT22;66896;50.924;4.572;2023-03-01T05:08:10;-3.30;96.20
55992;DHT22;66896;50.924;4.572;2023-03-01T05:10:46;-3.30;96.20
55992;DHT22;66896;50.924;4.572;2023-03-01T05:13:12;-3.40;96.30
55992;DHT22;66896;50.924;4.572;2023-03-01T05:15:56;-3.50;96.20
55992;DHT22;66896;50.924;4.572;2023-03-01T05:18:22;-3.50;96.30
55992;DHT22;66896;50.924;4.572;2023-03-01T05:20:51;-3.50;96.30
55992;DHT22;66896;50.924;4.572;2023-03-01T05:23:17;-3.60;96.60
55992;DHT22;66896;50.924;4.572;2023-03-01T05:25:43;-3.50;96.40
55992;DHT22;66896;50.924;4.572;2023-03-01T05:28:12;-3.50;96.40
55992;DHT22;66896;50.924;4.572;2023-03-01T05:30:38;-3.60;96.30
55992;DHT22;66896;50.924;4.572;2023-03-01T05:33:06;-3.20;97.00
55992;DHT22;66896;50.924;4.572;2023-03-01T05:35:42;-3.40;96.20
55992;DHT22;66896;50.924;4.572;2023-03-01T05:38:08;-3.40;96.40
55992;DHT22;66896;50.924;4.572;2023-03-01T05:40:34;-3.40;96.10
55992;DHT22;66896;50.924;4.572;2023-03-01T05:43:00;-3.50;96.00
55992;DHT22;66896;50.924;4.572;2023-03-01T05:45:26;-3.40;96.20
55992;DHT22;66896;50.924;4.572;2023-03-01T05:47:52;-3.30;95.80
55992;DHT22;66896;50.924;4.572;2023-03-01T05:50:19;-3.60;96.60
55992;DHT22;66896;50.924;4.572;2023-03-01T05:52:49;-3.80;97.10
55992;DHT22;66896;50.924;4.572;2023-03-01T05:55:16;-3.80;97.40
55992;DHT22;66896;50.924;4.572;2023-03-01T05:57:41;-3.80;97.40
55992;DHT22;66896;50.924;4.572;2023-03-01T06:00:08;-3.90;97.20
55992;DHT22;66896;50.924;4.572;2023-03-01T06:02:35;-4.00;97.00
55992;DHT22;66896;50.924;4.572;2023-03-01T06:05:01;-4.10;97.40
55992;DHT22;66896;50.924;4.572;2023-03-01T06:07:27;-3.90;97.20
55992;DHT22;66896;50.924;4.572;2023-03-01T06:09:53;-3.80;97.00
55992;DHT22;66896;50.924;4.572;2023-03-01T06:12:18;-3.90;97.10
55992;DHT22;66896;50.924;4.572;2023-03-01T06:14:45;-4.00;97.50
55992;DHT22;66896;50.924;4.572;2023-03-01T06:17:10;-3.90;97.10
55992;DHT22;66896;50.924;4.572;2023-03-01T06:19:36;-3.90;97.10
55992;DHT22;66896;50.924;4.572;2023-03-01T06:22:02;-3.90;97.30
55992;DHT22;66896;50.924;4.572;2023-03-01T06:24:27;-4.00;97.20
55992;DHT22;66896;50.924;4.572;2023-03-01T06:26:54;-4.00;97.40
55992;DHT22;66896;50.924;4.572;2023-03-01T06:29:19;-3.80;97.50
55992;DHT22;66896;50.924;4.572;2023-03-01T06:31:45;-4.00;97.50
55992;DHT22;66896;50.924;4.572;2023-03-01T06:34:11;-3.80;97.40
55992;DHT22;66896;50.924;4.572;2023-03-01T06:36:39;-4.00;97.40
55992;DHT22;66896;50.924;4.572;2023-03-01T06:39:04;-3.90;97.50
55992;DHT22;66896;50.924;4.572;2023-03-01T06:41:31;-3.90;97.30
55992;DHT22;66896;50.924;4.572;2023-03-01T06:43:58;-3.80;97.00
55992;DHT22;66896;50.924;4.572;2023-03-01T06:46:24;-3.90;97.00
55992;DHT22;66896;50.924;4.572;2023-03-01T06:48:50;-3.90;97.50
55992;DHT22;66896;50.924;4.572;2023-03-01T06:51:15;-3.80;97.50
55992;DHT22;66896;50.924;4.572;2023-03-01T06:53:41;-3.70;97.30
55992;DHT22;66896;50.924;4.572;2023-03-01T06:56:06;-3.60;97.20
55992;DHT22;66896;50.924;4.572;2023-03-01T06:58:32;-3.50;97.10
55992;DHT22;66896;50.924;4.572;2023-03-01T07:00:58;-3.50;96.90
55992;DHT22;66896;50.924;4.572;2023-03-01T07:03:23;-3.50;97.20
55992;DHT22;66896;50.924;4.572;2023-03-01T07:05:49;-3.50;96.80
55992;DHT22;66896;50.924;4.572;2023-03-01T07:08:16;-3.40;97.10
55992;DHT22;66896;50.924;4.572;2023-03-01T07:10:42;-3.30;96.90
55992;DHT22;66896;50.924;4.572;2023-03-01T07:13:08;-3.10;97.20
55992;DHT22;66896;50.924;4.572;2023-03-01T07:15:33;-3.00;96.90
55992;DHT22;66896;50.924;4.572;2023-03-01T07:17:59;-2.90;96.50
55992;DHT22;66896;50.924;4.572;2023-03-01T07:20:25;-2.90;96.60
55992;DHT22;66896;50.924;4.572;2023-03-01T07:22:51;-2.50;96.80
55992;DHT22;66896;50.924;4.572;2023-03-01T07:25:17;-2.40;96.30
55992;DHT22;66896;50.924;4.572;2023-03-01T07:27:42;-2.40;96.00
55992;DHT22;66896;50.924;4.572;2023-03-01T07:30:08;-2.40;95.90
55992;DHT22;66896;50.924;4.572;2023-03-01T07:32:34;-2.40;96.00
55992;DHT22;66896;50.924;4.572;2023-03-01T07:35:00;-2.20;96.00
55992;DHT22;66896;50.924;4.572;2023-03-01T07:37:25;-2.20;96.00
55992;DHT22;66896;50.924;4.572;2023-03-01T07:39:51;-2.10;95.90
55992;DHT22;66896;50.924;4.572;2023-03-01T07:42:17;-1.90;95.80
55992;DHT22;66896;50.924;4.572;2023-03-01T07:44:46;-1.70;95.80
55992;DHT22;66896;50.924;4.572;2023-03-01T07:47:11;-1.50;95.70
55992;DHT22;66896;50.924;4.572;2023-03-01T07:49:37;-1.40;95.50
55992;DHT22;66896;50.924;4.572;2023-03-01T07:52:02;-1.20;95.00
55992;DHT22;66896;50.924;4.572;2023-03-01T07:54:28;-1.10;95.10
55992;DHT22;66896;50.924;4.572;2023-03-01T07:56:53;-0.90;94.80
55992;DHT22;66896;50.924;4.572;2023-03-01T07:59:20;-0.70;94.50
55992;DHT22;66896;50.924;4.572;2023-03-01T08:01:45;-0.60;94.10
55992;DHT22;66896;50.924;4.572;2023-03-01T08:04:11;-0.50;94.20
55992;DHT22;66896;50.924;4.572;2023-03-01T08:06:36;-0.40;93.80
55992;DHT22;66896;50.924;4.572;2023-03-01T08:09:02;-0.30;93.70
55992;DHT22;66896;50.924;4.572;2023-03-01T08:11:28;0.00;92.90
55992;DHT22;66896;50.924;4.572;2023-03-01T08:13:54;0.10;92.90
55992;DHT22;66896;50.924;4.572;2023-03-01T08:16:19;0.20;92.90
55992;DHT22;66896;50.924;4.572;2023-03-01T08:18:45;0.30;92.10
55992;DHT22;66896;50.924;4.572;2023-03-01T08:21:11;0.40;91.50
55992;DHT22;66896;50.924;4.572;2023-03-01T08:23:38;0.50;92.10
55992;DHT22;66896;50.924;4.572;2023-03-01T08:26:08;0.60;91.80
55992;DHT22;66896;50.924;4.572;2023-03-01T08:28:34;0.70;91.50
55992;DHT22;66896;50.924;4.572;2023-03-01T08:31:00;0.80;91.60
55992;DHT22;66896;50.924;4.572;2023-03-01T08:33:26;1.00;91.20
55992;DHT22;66896;50.924;4.572;2023-03-01T08:35:51;1.10;91.10
55992;DHT22;66896;50.924;4.572;2023-03-01T08:38:17;1.30;90.80
55992;DHT22;66896;50.924;4.572;2023-03-01T08:40:42;1.50;90.60
55992;DHT22;66896;50.924;4.572;2023-03-01T08:43:08;1.70;88.80
55992;DHT22;66896;50.924;4.572;2023-03-01T08:45:33;2.10;88.00
55992;DHT22;66896;50.924;4.572;2023-03-01T08:47:59;2.40;85.90
55992;DHT22;66896;50.924;4.572;2023-03-01T08:50:25;2.90;84.10
55992;DHT22;66896;50.924;4.572;2023-03-01T08:52:50;3.10;81.50
55992;DHT22;66896;50.924;4.572;2023-03-01T08:55:16;3.90;80.10
55992;DHT22;66896;50.924;4.572;2023-03-01T08:57:43;4.40;76.40
55992;DHT22;66896;50.924;4.572;2023-03-01T09:00:09;5.00;74.50
55992;DHT22;66896;50.924;4.572;2023-03-01T09:02:34;5.10;72.00
55992;DHT22;66896;50.924;4.572;2023-03-01T09:05:00;5.00;72.30
55992;DHT22;66896;50.924;4.572;2023-03-01T09:07:26;5.40;72.00
55992;DHT22;66896;50.924;4.572;2023-03-01T09:09:53;5.70;69.10
55992;DHT22;66896;50.924;4.572;2023-03-01T09:12:19;5.80;67.00
55992;DHT22;66896;50.924;4.572;2023-03-01T09:14:45;6.00;68.60
55992;DHT22;66896;50.924;4.572;2023-03-01T09:17:10;6.10;67.90
55992;DHT22;66896;50.924;4.572;2023-03-01T09:19:36;6.40;66.70
55992;DHT22;66896;50.924;4.572;2023-03-01T09:22:03;6.50;63.60
55992;DHT22;66896;50.924;4.572;2023-03-01T09:24:28;6.70;64.40
55992;DHT22;66896;50.924;4.572;2023-03-01T09:26:54;6.90;61.80
55992;DHT22;66896;50.924;4.572;2023-03-01T09:29:21;7.00;62.40
55992;DHT22;66896;50.924;4.572;2023-03-01T09:31:46;7.40;61.40
55992;DHT22;66896;50.924;4.572;2023-03-01T09:34:12;7.90;59.30
55992;DHT22;66896;50.924;4.572;2023-03-01T09:36:41;7.90;58.10
55992;DHT22;66896;50.924;4.572;2023-03-01T09:39:06;7.10;59.80
55992;DHT22;66896;50.924;4.572;2023-03-01T09:44:12;7.40;59.00
55992;DHT22;66896;50.924;4.572;2023-03-01T09:46:42;7.20;59.50
55992;DHT22;66896;50.924;4.572;2023-03-01T09:49:19;7.60;57.70
55992;DHT22;66896;50.924;4.572;2023-03-01T09:51:59;7.50;56.60
55992;DHT22;66896;50.924;4.572;2023-03-01T09:54:25;8.00;56.80
55992;DHT22;66896;50.924;4.572;2023-03-01T09:57:04;8.60;55.60
55992;DHT22;66896;50.924;4.572;2023-03-01T10:05:04;9.80;50.50
55992;DHT22;66896;50.924;4.572;2023-03-01T10:09:56;10.90;47.40
55992;DHT22;66896;50.924;4.572;2023-03-01T10:12:24;11.20;47.10
55992;DHT22;66896;50.924;4.572;2023-03-01T10:14:59;10.80;48.30
55992;DHT22;66896;50.924;4.572;2023-03-01T10:17:39;11.00;47.30
55992;DHT22;66896;50.924;4.572;2023-03-01T10:20:26;11.30;45.60
55992;DHT22;66896;50.924;4.572;2023-03-01T10:22:55;11.70;45.40
55992;DHT22;66896;50.924;4.572;2023-03-01T10:25:30;11.60;45.10
55992;DHT22;66896;50.924;4.572;2023-03-01T10:28:01;11.10;45.60
55992;DHT22;66896;50.924;4.572;2023-03-01T10:30:38;11.50;45.70
55992;DHT22;66896;50.924;4.572;2023-03-01T10:33:16;11.90;43.70
55992;DHT22;66896;50.924;4.572;2023-03-01T10:35:43;12.20;44.50
55992;DHT22;66896;50.924;4.572;2023-03-01T10:38:10;11.60;42.60
55992;DHT22;66896;50.924;4.572;2023-03-01T10:40:37;11.40;44.00
55992;DHT22;66896;50.924;4.572;2023-03-01T10:43:14;11.70;44.40
55992;DHT22;66896;50.924;4.572;2023-03-01T10:45:40;11.30;43.40
55992;DHT22;66896;50.924;4.572;2023-03-01T10:50:31;11.70;43.70
55992;DHT22;66896;50.924;4.572;2023-03-01T10:52:59;11.50;43.20
55992;DHT22;66896;50.924;4.572;2023-03-01T11:00:58;13.00;40.50
55992;DHT22;66896;50.924;4.572;2023-03-01T11:03:27;13.40;39.80
55992;DHT22;66896;50.924;4.572;2023-03-01T11:05:55;14.00;38.70
55992;DHT22;66896;50.924;4.572;2023-03-01T11:08:31;13.30;38.80
55992;DHT22;66896;50.924;4.572;2023-03-01T11:11:12;13.80;38.40
55992;DHT22;66896;50.924;4.572;2023-03-01T11:16:34;12.50;40.40
55992;DHT22;66896;50.924;4.572;2023-03-01T11:19:04;13.40;39.10
55992;DHT22;66896;50.924;4.572;2023-03-01T11:21:30;13.60;38.20
55992;DHT22;66896;50.924;4.572;2023-03-01T11:23:58;14.40;37.40
55992;DHT22;66896;50.924;4.572;2023-03-01T11:26:25;14.70;36.20
55992;DHT22;66896;50.924;4.572;2023-03-01T11:28:51;15.40;34.10
55992;DHT22;66896;50.924;4.572;2023-03-01T11:31:19;15.40;34.20
55992;DHT22;66896;50.924;4.572;2023-03-01T11:38:54;14.90;35.70
55992;DHT22;66896;50.924;4.572;2023-03-01T11:41:21;14.40;36.70
55992;DHT22;66896;50.924;4.572;2023-03-01T11:43:56;15.00;35.70
55992;DHT22;66896;50.924;4.572;2023-03-01T11:57:16;13.60;35.60
55992;DHT22;66896;50.924;4.572;2023-03-01T12:09:36;14.70;34.40
55992;DHT22;66896;50.924;4.572;2023-03-01T12:14:42;15.20;34.60
55992;DHT22;66896;50.924;4.572;2023-03-01T12:22:31;15.30;33.10
55992;DHT22;66896;50.924;4.572;2023-03-01T12:27:30;15.30;33.40
55992;DHT22;66896;50.924;4.572;2023-03-01T12:51:06;16.10;34.10
55992;DHT22;66896;50.924;4.572;2023-03-01T12:53:36;15.90;32.80
55992;DHT22;66896;50.924;4.572;2023-03-01T12:56:04;16.20;32.80
55992;DHT22;66896;50.924;4.572;2023-03-01T13:08:59;17.40;30.20
55992;DHT22;66896;50.924;4.572;2023-03-01T13:11:27;17.90;29.20
55992;DHT22;66896;50.924;4.572;2023-03-01T13:14:01;17.80;29.40
55992;DHT22;66896;50.924;4.572;2023-03-01T13:16:39;16.80;29.80
55992;DHT22;66896;50.924;4.572;2023-03-01T13:19:09;18.20;29.60
55992;DHT22;66896;50.924;4.572;2023-03-01T13:21:35;17.00;29.00
55992;DHT22;66896;50.924;4.572;2023-03-01T13:24:01;16.30;30.00
55992;DHT22;66896;50.924;4.572;2023-03-01T13:26:26;15.90;32.50
55992;DHT22;66896;50.924;4.572;2023-03-01T13:28:55;16.50;30.70
55992;DHT22;66896;50.924;4.572;2023-03-01T13:52:06;17.00;31.10
55992;DHT22;66896;50.924;4.572;2023-03-01T13:54:47;17.00;31.50
55992;DHT22;66896;50.924;4.572;2023-03-01T13:57:16;18.00;28.80
55992;DHT22;66896;50.924;4.572;2023-03-01T13:59:46;18.60;28.10
55992;DHT22;66896;50.924;4.572;2023-03-01T14:02:12;17.40;29.80
55992;DHT22;66896;50.924;4.572;2023-03-01T14:04:38;17.20;30.60
55992;DHT22;66896;50.924;4.572;2023-03-01T14:07:18;17.70;29.90
55992;DHT22;66896;50.924;4.572;2023-03-01T14:09:45;18.80;28.50
55992;DHT22;66896;50.924;4.572;2023-03-01T14:14:57;19.30;28.30
55992;DHT22;66896;50.924;4.572;2023-03-01T14:19:54;16.20;30.80
55992;DHT22;66896;50.924;4.572;2023-03-01T14:22:25;16.90;30.30
55992;DHT22;66896;50.924;4.572;2023-03-01T14:25:03;15.60;31.00
55992;DHT22;66896;50.924;4.572;2023-03-01T14:27:33;15.70;31.90
55992;DHT22;66896;50.924;4.572;2023-03-01T14:30:00;15.00;33.80
55992;DHT22;66896;50.924;4.572;2023-03-01T14:32:30;15.00;33.60
55992;DHT22;66896;50.924;4.572;2023-03-01T14:34:56;14.00;35.10
55992;DHT22;66896;50.924;4.572;2023-03-01T14:37:29;15.00;34.10
55992;DHT22;66896;50.924;4.572;2023-03-01T14:39:57;15.20;33.30
55992;DHT22;66896;50.924;4.572;2023-03-01T14:42:23;14.70;34.60
55992;DHT22;66896;50.924;4.572;2023-03-01T14:44:51;14.90;34.10
55992;DHT22;66896;50.924;4.572;2023-03-01T14:47:39;15.40;32.90
55992;DHT22;66896;50.924;4.572;2023-03-01T14:50:05;15.10;33.60
55992;DHT22;66896;50.924;4.572;2023-03-01T14:52:39;15.00;34.20
55992;DHT22;66896;50.924;4.572;2023-03-01T14:55:06;15.60;32.90
55992;DHT22;66896;50.924;4.572;2023-03-01T14:57:32;15.40;32.50
55992;DHT22;66896;50.924;4.572;2023-03-01T14:59:58;15.00;33.20
55992;DHT22;66896;50.924;4.572;2023-03-01T15:02:28;14.70;34.10
55992;DHT22;66896;50.924;4.572;2023-03-01T15:04:56;13.80;35.40
55992;DHT22;66896;50.924;4.572;2023-03-01T15:07:22;13.70;36.10
55992;DHT22;66896;50.924;4.572;2023-03-01T15:09:51;12.80;37.40
55992;DHT22;66896;50.924;4.572;2023-03-01T15:14:53;12.00;39.00
55992;DHT22;66896;50.924;4.572;2023-03-01T15:17:40;10.80;42.00
55992;DHT22;66896;50.924;4.572;2023-03-01T15:20:06;10.40;43.60
55992;DHT22;66896;50.924;4.572;2023-03-01T15:22:32;10.00;44.20
55992;DHT22;66896;50.924;4.572;2023-03-01T15:24:58;9.80;44.70
55992;DHT22;66896;50.924;4.572;2023-03-01T15:27:25;9.50;45.70
55992;DHT22;66896;50.924;4.572;2023-03-01T15:29:55;9.20;46.30
55992;DHT22;66896;50.924;4.572;2023-03-01T15:32:30;9.10;48.10
55992;DHT22;66896;50.924;4.572;2023-03-01T15:34:59;9.10;46.80
55992;DHT22;66896;50.924;4.572;2023-03-01T15:37:37;9.10;46.20
55992;DHT22;66896;50.924;4.572;2023-03-01T15:40:17;9.20;46.60
55992;DHT22;66896;50.924;4.572;2023-03-01T15:42:42;8.80;47.90
